Time;durP1;ratioP1;P1;durP2;ratioP2;P2;SDS_P1;SDS_P2;PMS_P1;PMS_P2;Temp;Humidity;BMP_temperature;BMP_pressure;BME280_temperature;BME280_humidity;BME280_pressure;Samples;Min_cycle;Max_cycle;Signal;HPM_P1;HPM_P2
2021/03/30 00:00:09;;;;;;;7.57;5.93;;;;;;;4.36;73.12;99541.41;4993590;28;20875;-70
2021/03/30 00:02:36;;;;;;;7.73;5.90;;;;;;;4.42;73.29;99541.06;4996862;28;20228;-67
2021/03/30 00:05:05;;;;;;;7.00;5.93;;;;;;;4.29;73.72;99545.31;4995791;28;21721;-68
2021/03/30 00:07:32;;;;;;;6.33;5.70;;;;;;;4.26;73.54;99535.81;4993640;28;20218;-68
2021/03/30 00:09:59;;;;;;;7.40;5.93;;;;;;;4.26;73.91;99540.25;4992378;28;20399;-67
2021/03/30 00:12:26;;;;;;;6.47;5.83;;;;;;;4.09;74.49;99528.88;4992566;28;20220;-69
2021/03/30 00:14:53;;;;;;;6.07;5.57;;;;;;;4.00;75.40;99532.03;4993749;28;20667;-69
2021/03/30 00:17:20;;;;;;;8.43;6.30;;;;;;;4.05;74.97;99535.25;4992081;28;20909;-68
2021/03/30 00:19:47;;;;;;;6.40;5.90;;;;;;;3.97;76.23;99537.44;4994107;28;20205;-68
2021/03/30 00:22:15;;;;;;;7.57;6.47;;;;;;;3.93;76.42;99530.69;4994932;28;20705;-66
2021/03/30 00:24:42;;;;;;;6.80;6.20;;;;;;;4.04;75.71;99531.78;4993919;28;20323;-70
2021/03/30 00:27:09;;;;;;;8.83;6.30;;;;;;;3.91;75.96;99534.22;4989898;28;20212;-68
2021/03/30 00:29:43;;;;;;;6.83;6.23;;;;;;;3.95;75.84;99524.41;4996641;28;20205;-67
2021/03/30 00:32:11;;;;;;;8.17;5.97;;;;;;;4.01;75.57;99525.84;4991868;28;20636;-68
2021/03/30 00:34:38;;;;;;;6.40;5.80;;;;;;;3.75;76.66;99526.34;4995210;28;20216;-67
2021/03/30 00:37:05;;;;;;;7.60;5.43;;;;;;;3.84;77.30;99517.13;4995396;28;20263;-68
2021/03/30 00:39:33;;;;;;;6.33;5.73;;;;;;;3.81;77.35;99521.69;4996116;28;20208;-68
2021/03/30 00:42:00;;;;;;;6.43;5.73;;;;;;;3.62;78.12;99525.31;4992308;28;20233;-67
2021/03/30 00:44:27;;;;;;;6.33;5.73;;;;;;;3.60;78.46;99524.56;4996690;28;20221;-68
2021/03/30 00:46:54;;;;;;;6.37;5.77;;;;;;;3.64;78.62;99527.84;4996643;28;20213;-66
2021/03/30 00:49:22;;;;;;;5.93;5.43;;;;;;;3.72;78.75;99516.03;4995068;28;20209;-68
2021/03/30 00:51:49;;;;;;;7.30;5.10;;;;;;;3.63;79.26;99519.16;4993977;28;20221;-68
2021/03/30 00:54:16;;;;;;;6.70;5.27;;;;;;;3.75;78.61;99518.47;5001165;28;20197;-69
2021/03/30 00:56:44;;;;;;;6.57;4.90;;;;;;;3.80;78.18;99514.75;4995311;28;20360;-65
2021/03/30 00:59:12;;;;;;;7.27;5.10;;;;;;;3.77;78.82;99515.75;4993535;28;20736;-66
2021/03/30 01:01:39;;;;;;;5.87;5.07;;;;;;;3.95;77.33;99516.53;5000530;28;20211;-69
2021/03/30 01:04:06;;;;;;;5.70;5.20;;;;;;;3.79;78.25;99524.41;4999306;28;20239;-68
2021/03/30 01:06:34;;;;;;;7.67;5.57;;;;;;;3.65;79.12;99525.16;4998269;28;20246;-70
2021/03/30 01:09:12;;;;;;;6.47;5.03;;;;;;;3.55;79.43;99532.66;5000690;28;20212;-69
2021/03/30 01:11:44;;;;;;;5.53;5.13;;;;;;;3.55;79.79;99522.16;4998282;28;20252;-69
2021/03/30 01:14:25;;;;;;;6.87;5.30;;;;;;;3.66;79.27;99518.97;4998873;28;20201;-69
2021/03/30 01:16:54;;;;;;;5.90;5.43;;;;;;;3.43;81.13;99525.44;5000803;28;20201;-70
2021/03/30 01:19:34;;;;;;;5.53;5.10;;;;;;;3.68;79.72;99522.38;4996083;28;20205;-67
2021/03/30 01:22:33;;;;;;;6.07;5.43;;;;;;;3.64;79.63;99515.59;4999450;28;20229;-67
2021/03/30 01:25:02;;;;;;;7.53;5.70;;;;;;;3.59;79.57;99517.59;4995178;28;20768;-69
2021/03/30 01:27:44;;;;;;;5.80;5.10;;;;;;;3.59;80.21;99513.22;5000311;28;20656;-65
2021/03/30 01:30:14;;;;;;;5.73;5.23;;;;;;;3.63;79.50;99527.00;5000599;28;20715;-66
2021/03/30 01:32:43;;;;;;;6.33;5.43;;;;;;;3.46;80.37;99514.81;5001042;28;20240;-68
2021/03/30 01:35:12;;;;;;;5.83;5.33;;;;;;;3.44;80.31;99521.91;4997366;28;20212;-68
2021/03/30 01:37:41;;;;;;;5.77;5.27;;;;;;;3.59;79.61;99520.22;5001303;28;20281;-67
2021/03/30 01:40:09;;;;;;;6.10;5.60;;;;;;;3.45;80.59;99513.09;4997933;28;20456;-68
2021/03/30 01:42:37;;;;;;;6.90;6.30;;;;;;;3.40;80.50;99523.81;4997018;28;20232;-69
2021/03/30 01:45:06;;;;;;;7.83;5.00;;;;;;;3.30;81.33;99520.81;4994291;28;20229;-66
2021/03/30 01:47:36;;;;;;;6.13;5.53;;;;;;;3.18;82.12;99516.25;4998464;28;20208;-67
2021/03/30 01:50:04;;;;;;;6.00;5.50;;;;;;;3.11;82.57;99507.84;4999830;28;20217;-70
2021/03/30 01:52:31;;;;;;;5.63;5.00;;;;;;;3.22;81.46;99509.03;4993578;28;20225;-69
2021/03/30 01:54:58;;;;;;;7.57;5.93;;;;;;;3.12;82.59;99514.78;4996885;28;20208;-67
2021/03/30 01:57:28;;;;;;;6.17;5.57;;;;;;;3.17;81.86;99512.75;4994543;28;20213;-68
2021/03/30 01:59:55;;;;;;;7.77;5.93;;;;;;;3.17;81.27;99510.13;4996021;28;20665;-68
2021/03/30 02:02:22;;;;;;;6.47;5.70;;;;;;;3.14;81.78;99517.31;4992649;28;20324;-66
2021/03/30 02:04:51;;;;;;;9.30;6.00;;;;;;;3.06;82.04;99512.47;4998644;28;20231;-67
2021/03/30 02:07:18;;;;;;;8.23;6.13;;;;;;;2.85;83.20;99519.66;4993887;28;20208;-66
2021/03/30 02:09:47;;;;;;;7.07;6.00;;;;;;;2.85;82.56;99515.28;4999787;28;20213;-68
2021/03/30 02:12:15;;;;;;;6.70;6.00;;;;;;;2.99;82.28;99516.34;4991798;28;20340;-66
2021/03/30 02:14:43;;;;;;;7.73;6.73;;;;;;;2.77;82.88;99520.03;4988941;28;20201;-69
2021/03/30 02:17:16;;;;;;;7.73;6.73;;;;;;;2.76;83.44;99520.94;4973206;28;20226;-67
2021/03/30 02:19:48;;;;;;;8.20;6.30;;;;;;;2.65;84.45;99521.50;4969399;28;20210;-66
2021/03/30 02:22:27;;;;;;;7.23;6.33;;;;;;;2.64;84.67;99517.16;4974115;28;20225;-67
2021/03/30 02:24:55;;;;;;;6.93;6.33;;;;;;;2.63;84.79;99512.84;4976421;28;20256;-69
2021/03/30 02:27:23;;;;;;;6.20;5.60;;;;;;;2.45;85.18;99509.38;4977676;28;20214;-67
2021/03/30 02:29:52;;;;;;;6.63;6.03;;;;;;;2.39;86.05;99515.78;4976487;28;20206;-69
2021/03/30 02:32:20;;;;;;;7.03;6.30;;;;;;;2.38;85.88;99518.44;4977465;28;20245;-69
2021/03/30 02:34:48;;;;;;;8.60;6.17;;;;;;;2.42;85.59;99515.63;4976580;28;20582;-71
2021/03/30 02:37:16;;;;;;;6.43;5.93;;;;;;;2.62;84.76;99513.78;4979965;28;20212;-68
2021/03/30 02:39:44;;;;;;;6.07;5.57;;;;;;;2.57;84.75;99510.53;4977333;28;20579;-68
2021/03/30 02:42:11;;;;;;;7.37;6.17;;;;;;;2.44;85.01;99510.28;4977577;28;20728;-66
2021/03/30 02:44:42;;;;;;;6.30;5.80;;;;;;;2.41;85.52;99513.91;4977616;28;20233;-66
2021/03/30 02:47:10;;;;;;;6.20;5.67;;;;;;;2.50;85.05;99506.53;4980532;28;20206;-67
2021/03/30 02:49:38;;;;;;;6.43;5.73;;;;;;;2.63;83.92;99514.63;4978086;28;20206;-68
2021/03/30 02:52:05;;;;;;;6.57;5.93;;;;;;;2.46;85.18;99513.69;4978176;28;20221;-67
2021/03/30 02:54:32;;;;;;;6.00;5.33;;;;;;;2.40;85.53;99508.75;4978299;28;20202;-68
2021/03/30 02:57:02;;;;;;;5.70;5.20;;;;;;;2.31;86.46;99510.06;4977570;28;20219;-67
2021/03/30 02:59:29;;;;;;;6.17;5.50;;;;;;;2.32;86.79;99514.38;4975416;28;20213;-68
2021/03/30 03:01:57;;;;;;;5.67;5.17;;;;;;;2.22;87.63;99519.19;4972776;28;20400;-68
2021/03/30 03:04:25;;;;;;;6.50;5.90;;;;;;;2.36;87.32;99513.31;4976108;28;20225;-68
2021/03/30 03:06:52;;;;;;;5.33;4.80;;;;;;;2.34;86.33;99512.53;4975194;28;20198;-70
2021/03/30 03:09:19;;;;;;;6.13;5.63;;;;;;;2.09;87.76;99521.53;4979564;28;20201;-70
2021/03/30 03:11:47;;;;;;;7.17;5.27;;;;;;;1.99;88.42;99520.28;4977069;28;20223;-69
2021/03/30 03:14:16;;;;;;;6.83;5.40;;;;;;;2.28;87.50;99511.03;4979411;28;20872;-69
2021/03/30 03:16:44;;;;;;;7.07;5.30;;;;;;;2.32;86.78;99511.75;4972349;28;20212;-68
2021/03/30 03:19:11;;;;;;;6.67;5.00;;;;;;;2.29;87.49;99512.75;4975120;28;20205;-67
2021/03/30 03:21:38;;;;;;;6.30;5.80;;;;;;;2.19;87.76;99510.63;4973838;28;20229;-69
2021/03/30 03:24:10;;;;;;;6.10;5.57;;;;;;;2.08;87.62;99516.38;4970861;28;20209;-68
2021/03/30 03:26:38;;;;;;;5.70;5.30;;;;;;;1.83;90.16;99518.38;4974126;28;20370;-67
2021/03/30 03:29:12;;;;;;;5.80;5.20;;;;;;;1.81;90.36;99516.75;4975842;28;20713;-66
2021/03/30 03:31:40;;;;;;;7.27;5.60;;;;;;;1.92;89.97;99513.66;4973119;28;20224;-69
2021/03/30 03:34:07;;;;;;;6.27;5.60;;;;;;;1.80;90.77;99512.44;4977205;28;20213;-69
2021/03/30 03:36:35;;;;;;;8.27;5.80;;;;;;;1.83;90.61;99513.13;4971819;28;20203;-70
2021/03/30 03:39:04;;;;;;;6.43;5.37;;;;;;;1.78;90.37;99507.28;4978512;28;20373;-68
2021/03/30 03:41:31;;;;;;;5.40;5.00;;;;;;;1.66;91.35;99513.91;4977484;28;20206;-68
2021/03/30 03:43:58;;;;;;;5.77;5.37;;;;;;;1.76;91.32;99511.72;4975640;28;20605;-66
2021/03/30 03:46:26;;;;;;;7.03;6.43;;;;;;;1.78;90.76;99511.66;4977134;28;20312;-68
2021/03/30 03:48:53;;;;;;;6.17;5.67;;;;;;;1.88;89.92;99511.16;4975919;28;20217;-67
2021/03/30 03:51:21;;;;;;;6.30;5.73;;;;;;;1.81;90.23;99514.97;4975589;28;20220;-69
2021/03/30 03:53:49;;;;;;;5.60;5.07;;;;;;;1.63;90.75;99521.88;4981957;28;20228;-69
2021/03/30 03:56:23;;;;;;;5.43;5.00;;;;;;;1.64;91.22;99509.69;4990343;28;20293;-69
2021/03/30 03:58:53;;;;;;;8.83;5.60;;;;;;;1.56;91.61;99517.88;4997818;28;20196;-70
2021/03/30 04:01:24;;;;;;;7.97;5.63;;;;;;;1.59;92.08;99517.72;4994235;28;20209;-68
2021/03/30 04:03:56;;;;;;;6.23;5.63;;;;;;;1.48;92.29;99514.75;4993669;28;20211;-68
2021/03/30 04:06:30;;;;;;;5.43;5.07;;;;;;;1.51;92.26;99523.28;4992908;28;20235;-71
2021/03/30 04:09:00;;;;;;;6.17;5.57;;;;;;;1.53;92.15;99521.47;4996365;28;20197;-70
2021/03/30 04:11:27;;;;;;;6.00;5.50;;;;;;;1.44;92.77;99522.72;4996725;28;20831;-66
2021/03/30 04:13:57;;;;;;;6.70;4.90;;;;;;;1.41;93.15;99524.63;4993406;28;20212;-69
2021/03/30 04:16:25;;;;;;;6.63;5.30;;;;;;;1.33;93.72;99524.13;4993190;28;20754;-70
2021/03/30 04:18:52;;;;;;;6.97;5.20;;;;;;;1.47;93.35;99524.34;4990709;28;20204;-71
2021/03/30 04:21:23;;;;;;;5.97;5.37;;;;;;;1.42;93.37;99529.78;4991190;28;20697;-69
2021/03/30 04:23:51;;;;;;;6.97;5.20;;;;;;;1.39;92.80;99521.22;4998741;28;20243;-68
2021/03/30 04:26:18;;;;;;;6.53;5.63;;;;;;;1.28;93.48;99521.69;4999280;28;20227;-67
2021/03/30 04:28:45;;;;;;;7.37;5.97;;;;;;;1.33;93.70;99530.22;4999590;28;20306;-68
2021/03/30 04:31:13;;;;;;;6.00;5.50;;;;;;;1.24;93.94;99536.66;5004263;28;20208;-66
2021/03/30 04:33:40;;;;;;;6.23;5.67;;;;;;;1.25;94.29;99532.28;4992185;28;20229;-67
2021/03/30 04:36:08;;;;;;;6.63;5.17;;;;;;;1.19;94.52;99530.81;4997830;28;20208;-68
2021/03/30 04:38:36;;;;;;;6.50;5.60;;;;;;;1.18;95.21;99534.31;4999491;28;20683;-66
2021/03/30 04:41:04;;;;;;;6.20;5.70;;;;;;;1.18;94.72;99534.31;5002411;28;20216;-66
2021/03/30 04:43:31;;;;;;;6.63;6.00;;;;;;;1.09;95.22;99538.19;5002467;28;20235;-67
2021/03/30 04:45:58;;;;;;;6.47;5.40;;;;;;;1.15;95.05;99534.47;5001087;28;20829;-66
2021/03/30 04:48:25;;;;;;;6.07;5.57;;;;;;;1.09;95.00;99543.41;4999124;28;20360;-67
2021/03/30 04:50:54;;;;;;;5.83;5.33;;;;;;;1.07;95.71;99541.75;5001071;28;20209;-65
2021/03/30 04:53:26;;;;;;;6.03;5.53;;;;;;;1.26;94.25;99545.28;4996967;28;20231;-68
2021/03/30 04:55:54;;;;;;;6.00;5.50;;;;;;;1.15;94.58;99545.75;4999183;28;20201;-71
2021/03/30 04:58:21;;;;;;;6.13;5.53;;;;;;;1.10;94.84;99557.28;4999561;28;20209;-68
2021/03/30 05:00:48;;;;;;;6.40;5.87;;;;;;;1.19;95.26;99556.06;4999052;28;20620;-71
2021/03/30 05:03:15;;;;;;;7.10;5.23;;;;;;;1.21;94.58;99549.00;5001529;28;20233;-66
2021/03/30 05:05:42;;;;;;;7.93;5.47;;;;;;;1.22;94.00;99555.91;5000798;28;20228;-68
2021/03/30 05:08:09;;;;;;;6.00;5.47;;;;;;;1.16;94.07;99554.44;5000296;28;20209;-71
2021/03/30 05:10:36;;;;;;;7.93;6.20;;;;;;;1.14;94.74;99559.72;4999329;28;20209;-67
2021/03/30 05:13:04;;;;;;;7.07;6.00;;;;;;;1.11;95.36;99565.06;4995542;28;20229;-69
2021/03/30 05:15:31;;;;;;;5.97;5.47;;;;;;;1.11;95.18;99570.28;4998382;28;20209;-67
2021/03/30 05:17:58;;;;;;;5.83;5.33;;;;;;;1.36;93.83;99566.63;4999326;28;20214;-71
2021/03/30 05:20:25;;;;;;;7.00;6.40;;;;;;;1.24;94.14;99581.06;4998093;28;20201;-68
2021/03/30 05:22:52;;;;;;;6.30;5.43;;;;;;;1.63;96.49;99582.00;4999249;28;20597;-68
2021/03/30 05:25:19;;;;;;;5.83;5.23;;;;;;;1.52;96.13;99586.84;5001568;28;20225;-67
2021/03/30 05:27:46;;;;;;;6.90;6.27;;;;;;;1.44;96.69;99587.19;4999155;28;20255;-67
2021/03/30 05:30:14;;;;;;;6.00;5.50;;;;;;;1.53;95.82;99585.94;4998324;28;20196;-69
2021/03/30 05:32:42;;;;;;;7.57;5.97;;;;;;;1.47;95.64;99576.59;4997866;28;20254;-70
2021/03/30 05:35:11;;;;;;;6.13;5.63;;;;;;;1.63;96.41;99576.78;4995620;28;20212;-66
2021/03/30 05:37:42;;;;;;;6.87;6.23;;;;;;;1.83;96.07;99578.50;4997327;28;20228;-66
2021/03/30 05:40:11;;;;;;;6.27;5.77;;;;;;;1.91;95.56;99585.16;4996082;28;20197;-69
2021/03/30 05:42:41;;;;;;;5.53;5.10;;;;;;;2.15;94.26;99580.56;4998106;28;20232;-68
2021/03/30 05:45:09;;;;;;;6.10;5.53;;;;;;;2.41;92.21;99581.94;4997196;28;20217;-67
2021/03/30 05:47:37;;;;;;;6.97;5.80;;;;;;;2.39;91.20;99588.16;4997264;28;20210;-66
2021/03/30 05:50:09;;;;;;;5.57;5.10;;;;;;;2.43;90.83;99587.97;4995050;28;20896;-67
2021/03/30 05:52:44;;;;;;;6.90;6.30;;;;;;;2.69;90.26;99582.38;4999023;28;20225;-64
2021/03/30 05:55:13;;;;;;;6.37;5.80;;;;;;;2.75;89.17;99588.19;4998160;28;20771;-64
2021/03/30 05:57:40;;;;;;;6.90;5.47;;;;;;;2.76;89.30;99586.41;4993355;28;20235;-64
2021/03/30 06:00:09;;;;;;;5.60;5.10;;;;;;;2.85;88.71;99593.81;4996148;28;20205;-67
2021/03/30 06:02:41;;;;;;;8.83;5.97;;;;;;;2.88;88.78;99592.81;4997220;28;20236;-67
2021/03/30 06:05:08;;;;;;;7.07;5.70;;;;;;;2.89;87.52;99598.00;4995382;28;20224;-66
2021/03/30 06:07:37;;;;;;;6.63;5.80;;;;;;;2.83;88.28;99593.03;4994278;28;20215;-67
2021/03/30 06:10:06;;;;;;;7.70;6.57;;;;;;;3.04;87.00;99600.75;4995650;28;20212;-66
2021/03/30 06:12:33;;;;;;;7.37;6.77;;;;;;;3.02;85.32;99602.59;4997217;28;20239;-68
2021/03/30 06:15:02;;;;;;;6.33;5.73;;;;;;;3.05;84.46;99605.06;4993159;28;20244;-69
2021/03/30 06:17:29;;;;;;;10.33;6.00;;;;;;;2.98;84.49;99603.69;4996118;28;20209;-68
2021/03/30 06:19:58;;;;;;;6.77;6.07;;;;;;;3.04;84.70;99606.88;4996356;28;20206;-68
2021/03/30 06:22:26;;;;;;;6.53;5.83;;;;;;;3.15;84.49;99606.31;4996371;28;20222;-66
2021/03/30 06:24:54;;;;;;;6.40;5.90;;;;;;;3.27;82.71;99611.88;4997799;28;20212;-68
2021/03/30 06:27:24;;;;;;;6.10;5.60;;;;;;;3.39;82.97;99613.84;4997710;28;20205;-69
2021/03/30 06:29:52;;;;;;;6.63;6.03;;;;;;;3.54;82.79;99608.75;4994064;28;20212;-67
2021/03/30 06:32:21;;;;;;;6.40;5.77;;;;;;;3.54;83.47;99614.84;4995903;28;20240;-68
2021/03/30 06:34:50;;;;;;;7.17;5.73;;;;;;;3.71;83.80;99613.09;4994736;28;20205;-69
2021/03/30 06:37:34;;;;;;;7.70;6.30;;;;;;;3.94;81.95;99614.50;4996132;28;20404;-71
2021/03/30 06:40:04;;;;;;;8.40;6.40;;;;;;;4.14;80.69;99613.44;4997371;28;20229;-67
2021/03/30 06:42:39;;;;;;;6.77;6.17;;;;;;;4.16;80.16;99618.63;4995749;28;20677;-67
2021/03/30 06:45:13;;;;;;;11.57;8.80;;;;;;;4.30;79.83;99621.34;4998153;28;20812;-69
2021/03/30 06:47:42;;;;;;;9.93;8.23;;;;;;;4.40;79.40;99618.22;4989352;28;20207;-67
2021/03/30 06:50:16;;;;;;;7.47;6.77;;;;;;;4.56;78.24;99613.81;4996067;28;20209;-69
2021/03/30 06:52:44;;;;;;;7.27;6.40;;;;;;;4.73;78.06;99614.63;4990537;28;20232;-68
2021/03/30 06:55:13;;;;;;;6.33;5.83;;;;;;;4.87;78.11;99611.22;4994040;28;20200;-66
2021/03/30 06:57:43;;;;;;;7.33;5.90;;;;;;;5.20;76.31;99604.94;4995362;28;20296;-67
2021/03/30 07:00:13;;;;;;;6.10;5.50;;;;;;;5.43;75.65;99615.91;4997233;28;21817;-73
2021/03/30 07:02:42;;;;;;;6.23;5.30;;;;;;;5.44;74.76;99607.91;5000930;28;20228;-69
2021/03/30 07:05:21;;;;;;;6.63;5.83;;;;;;;5.77;75.41;99601.56;5000966;28;20221;-66
2021/03/30 07:07:52;;;;;;;5.97;5.37;;;;;;;5.91;72.84;99615.66;4999270;28;20205;-65
2021/03/30 07:10:32;;;;;;;6.60;5.63;;;;;;;6.17;72.47;99611.44;5001015;28;20712;-69
2021/03/30 07:12:59;;;;;;;6.57;5.97;;;;;;;6.17;71.38;99610.59;4999360;28;20320;-66
2021/03/30 07:15:26;;;;;;;6.00;5.50;;;;;;;6.42;70.84;99601.16;4998644;28;20197;-68
2021/03/30 07:18:06;;;;;;;8.13;5.43;;;;;;;6.65;69.70;99603.16;5001810;28;20917;-68
2021/03/30 07:20:37;;;;;;;5.93;5.43;;;;;;;6.80;68.46;99603.09;4999318;28;20207;-67
2021/03/30 07:23:07;;;;;;;8.27;5.67;;;;;;;7.01;67.83;99602.63;4998898;28;20229;-68
2021/03/30 07:25:38;;;;;;;7.13;5.53;;;;;;;6.92;67.76;99598.81;4997707;28;20229;-67
2021/03/30 07:28:10;;;;;;;6.33;5.73;;;;;;;7.06;67.28;99600.53;4998517;28;20251;-67
2021/03/30 07:30:37;;;;;;;6.47;5.50;;;;;;;7.26;66.87;99603.63;5000616;28;20208;-66
2021/03/30 07:33:13;;;;;;;6.33;5.40;;;;;;;7.46;66.13;99597.84;5001646;28;20243;-69
2021/03/30 07:35:40;;;;;;;7.30;6.17;;;;;;;7.55;65.35;99590.25;5001631;28;20216;-66
2021/03/30 07:38:15;;;;;;;7.63;6.43;;;;;;;7.73;64.81;99594.25;4999450;28;21013;-67
2021/03/30 07:40:42;;;;;;;6.33;4.97;;;;;;;7.59;65.50;99599.66;5001824;28;20209;-70
2021/03/30 07:43:13;;;;;;;6.80;6.10;;;;;;;7.79;64.81;99593.84;5000417;28;20225;-69
2021/03/30 07:45:42;;;;;;;10.93;6.20;;;;;;;7.79;64.57;99595.63;5001910;28;20232;-69
2021/03/30 07:48:10;;;;;;;6.43;5.67;;;;;;;8.08;63.66;99598.03;5001222;28;20255;-70
2021/03/30 07:50:50;;;;;;;10.37;5.93;;;;;;;8.12;63.19;99599.50;5000789;28;20409;-69
2021/03/30 07:53:47;;;;;;;7.07;5.30;;;;;;;8.34;61.74;99595.34;4996654;28;20235;-68
2021/03/30 07:56:48;;;;;;;5.67;4.93;;;;;;;8.69;61.22;99592.81;4999450;28;20813;-69
2021/03/30 07:59:44;;;;;;;5.50;4.97;;;;;;;8.76;60.24;99592.34;4999057;28;20239;-68
2021/03/30 08:02:13;;;;;;;6.43;5.83;;;;;;;9.21;58.51;99591.69;4998203;28;20228;-69
2021/03/30 08:04:59;;;;;;;6.20;5.60;;;;;;;9.19;58.23;99597.06;4994200;28;20669;-68
2021/03/30 08:07:47;;;;;;;6.23;5.67;;;;;;;9.73;56.54;99593.94;4999438;28;20712;-69
2021/03/30 08:10:26;;;;;;;9.50;5.73;;;;;;;9.58;58.51;99593.31;4996148;28;20898;-69
2021/03/30 08:13:26;;;;;;;7.00;5.03;;;;;;;9.81;57.31;99592.38;5000098;28;20227;-68
2021/03/30 08:15:55;;;;;;;7.80;6.30;;;;;;;9.87;56.04;99590.22;4989035;28;20197;-68
2021/03/30 08:18:24;;;;;;;6.23;5.70;;;;;;;9.98;56.25;99598.13;4997580;28;20212;-69
2021/03/30 08:21:03;;;;;;;7.03;6.33;;;;;;;10.26;55.37;99598.63;4998990;28;20201;-71
2021/03/30 08:23:31;;;;;;;6.80;6.10;;;;;;;10.28;55.38;99599.34;4995613;28;20641;-68
2021/03/30 08:26:21;;;;;;;5.80;5.30;;;;;;;10.61;55.09;99594.97;4998617;28;20750;-68
2021/03/30 08:29:01;;;;;;;8.27;5.80;;;;;;;10.59;55.69;99598.69;4993407;28;20612;-68
2021/03/30 08:31:30;;;;;;;6.53;5.93;;;;;;;10.89;54.07;99598.00;4995116;28;20213;-66
2021/03/30 08:33:58;;;;;;;8.13;5.90;;;;;;;11.24;53.24;99596.88;4996897;28;20294;-66
2021/03/30 08:36:28;;;;;;;6.80;6.10;;;;;;;11.17;52.05;99595.69;4998035;28;20546;-68
2021/03/30 08:38:58;;;;;;;6.40;5.77;;;;;;;11.50;50.87;99607.09;4995662;28;20209;-66
2021/03/30 08:42:01;;;;;;;9.07;6.77;;;;;;;11.48;49.72;99602.91;4996593;28;20236;-68
2021/03/30 08:44:48;;;;;;;6.50;5.90;;;;;;;11.67;49.40;99605.66;4995820;28;20603;-68
2021/03/30 08:47:44;;;;;;;6.40;5.80;;;;;;;11.97;48.09;99603.16;4998105;28;20663;-65
2021/03/30 08:50:19;;;;;;;6.17;5.53;;;;;;;12.14;47.08;99607.88;4998662;28;20201;-69
2021/03/30 08:52:47;;;;;;;5.90;5.40;;;;;;;12.48;46.20;99592.56;4996771;28;20307;-69
2021/03/30 08:55:14;;;;;;;7.23;6.53;;;;;;;12.66;45.01;99593.56;4996249;28;20291;-69
2021/03/30 08:57:49;;;;;;;6.70;5.77;;;;;;;13.02;43.63;99603.69;4996756;28;20801;-69
2021/03/30 09:00:17;;;;;;;7.33;6.13;;;;;;;13.25;44.16;99598.06;4998251;28;20204;-67
2021/03/30 09:02:44;;;;;;;8.10;5.97;;;;;;;13.34;42.63;99602.53;4996994;28;20224;-69
2021/03/30 09:05:16;;;;;;;9.10;6.30;;;;;;;13.55;42.29;99602.41;4995930;28;20209;-69
2021/03/30 09:07:43;;;;;;;8.37;6.77;;;;;;;13.76;43.13;99604.00;4995469;28;20220;-68
2021/03/30 09:10:11;;;;;;;7.17;6.47;;;;;;;13.81;43.28;99603.59;4997161;28;20603;-68
2021/03/30 09:12:38;;;;;;;8.07;7.27;;;;;;;14.07;42.03;99602.94;4995100;28;20224;-68
2021/03/30 09:15:08;;;;;;;10.47;6.83;;;;;;;14.17;41.17;99596.53;5002524;28;20209;-68
2021/03/30 09:17:36;;;;;;;8.90;7.37;;;;;;;14.24;41.23;99596.81;5002162;28;20216;-68
2021/03/30 09:20:07;;;;;;;7.50;6.40;;;;;;;14.43;40.09;99592.38;4999495;28;20324;-67
2021/03/30 09:22:37;;;;;;;9.93;6.97;;;;;;;14.66;39.71;99594.59;4997490;28;21268;-68
2021/03/30 09:25:21;;;;;;;9.93;7.20;;;;;;;14.81;38.99;99592.25;4997397;28;20862;-68
2021/03/30 09:27:48;;;;;;;8.03;6.67;;;;;;;14.90;39.45;99584.19;4999690;28;20197;-69
2021/03/30 09:30:18;;;;;;;6.83;6.13;;;;;;;15.25;38.75;99580.81;5002883;28;20381;-69
2021/03/30 09:32:47;;;;;;;8.47;5.73;;;;;;;15.26;37.78;99582.47;5001934;28;20323;-70
2021/03/30 09:35:15;;;;;;;8.63;6.17;;;;;;;15.35;36.94;99578.88;5001719;28;20200;-69
2021/03/30 09:37:45;;;;;;;13.03;6.10;;;;;;;15.18;37.78;99577.91;4999889;28;20216;-69
2021/03/30 09:40:16;;;;;;;7.50;5.93;;;;;;;15.35;37.32;99573.53;4999131;28;20333;-71
2021/03/30 09:42:50;;;;;;;7.37;6.60;;;;;;;15.55;36.08;99581.34;5000762;28;21158;-68
2021/03/30 09:45:22;;;;;;;9.00;6.07;;;;;;;15.49;36.25;99580.97;5003698;28;20205;-70
2021/03/30 09:47:50;;;;;;;7.53;6.30;;;;;;;15.77;36.03;99570.09;4998980;28;20520;-69
2021/03/30 09:50:19;;;;;;;6.17;5.67;;;;;;;15.99;35.70;99572.41;5001636;28;20579;-67
2021/03/30 09:52:47;;;;;;;8.97;5.73;;;;;;;15.81;35.68;99573.31;5001183;28;20258;-68
2021/03/30 09:55:28;;;;;;;7.00;6.27;;;;;;;15.88;36.10;99570.84;5000325;28;21481;-69
2021/03/30 09:58:02;;;;;;;10.23;6.40;;;;;;;15.91;35.38;99566.03;5000395;28;20307;-65
2021/03/30 10:00:35;;;;;;;9.40;5.67;;;;;;;15.95;36.40;99557.69;5005023;28;20213;-68
2021/03/30 10:03:03;;;;;;;7.17;6.47;;;;;;;16.41;34.43;99565.38;5003654;28;20232;-69
2021/03/30 10:05:33;;;;;;;5.97;5.37;;;;;;;16.28;34.58;99558.63;5000494;28;20212;-69
2021/03/30 10:08:01;;;;;;;6.83;5.40;;;;;;;16.34;34.63;99549.97;4999856;28;20208;-67
2021/03/30 10:10:40;;;;;;;7.60;6.30;;;;;;;16.55;33.56;99550.53;4999362;28;20692;-70
2021/03/30 10:13:09;;;;;;;6.97;5.83;;;;;;;16.70;32.78;99545.38;5000566;28;20232;-69
2021/03/30 10:15:40;;;;;;;5.87;5.17;;;;;;;16.89;32.50;99545.03;4997691;28;20210;-68
2021/03/30 10:18:09;;;;;;;6.03;5.50;;;;;;;17.27;32.08;99535.66;5002042;28;20298;-69
2021/03/30 10:20:38;;;;;;;5.40;4.70;;;;;;;17.29;31.26;99533.66;4999023;28;20209;-68
2021/03/30 10:23:14;;;;;;;6.43;5.10;;;;;;;17.29;31.48;99528.28;4999405;28;20327;-67
2021/03/30 10:25:42;;;;;;;5.10;4.43;;;;;;;17.36;31.63;99535.50;4995697;28;20229;-68
2021/03/30 10:28:10;;;;;;;5.70;5.07;;;;;;;17.52;31.26;99527.59;4999694;28;20228;-68
2021/03/30 10:30:41;;;;;;;6.30;5.67;;;;;;;17.75;29.79;99520.47;4993110;28;20197;-66
2021/03/30 10:33:12;;;;;;;5.10;4.43;;;;;;;17.87;30.19;99522.78;4996474;28;20263;-66
2021/03/30 10:35:39;;;;;;;4.97;4.30;;;;;;;18.27;29.41;99525.44;4999814;28;20341;-67
2021/03/30 10:38:07;;;;;;;4.30;3.90;;;;;;;18.27;28.91;99526.31;4998325;28;20197;-66
2021/03/30 10:40:36;;;;;;;6.47;4.70;;;;;;;18.38;28.72;99522.38;4999158;28;20742;-66
2021/03/30 10:43:23;;;;;;;4.63;4.23;;;;;;;18.63;28.95;99506.94;4999026;28;20244;-68
2021/03/30 10:45:53;;;;;;;4.93;4.43;;;;;;;18.86;27.59;99510.63;4998078;28;20270;-66
2021/03/30 10:48:20;;;;;;;5.43;4.90;;;;;;;19.23;26.81;99508.97;5000943;28;20640;-66
2021/03/30 10:50:47;;;;;;;4.70;4.30;;;;;;;19.27;25.97;99507.59;5002011;28;20805;-69
2021/03/30 10:53:14;;;;;;;4.43;4.00;;;;;;;19.24;26.56;99510.66;5000310;28;20229;-66
2021/03/30 10:55:43;;;;;;;7.17;4.20;;;;;;;19.06;26.61;99502.94;5000402;28;20638;-69
2021/03/30 10:58:12;;;;;;;5.70;4.87;;;;;;;19.16;26.76;99506.19;4998136;28;20639;-68
2021/03/30 11:00:40;;;;;;;5.17;4.37;;;;;;;19.09;26.27;99497.19;4999962;28;20216;-69
2021/03/30 11:03:22;;;;;;;4.70;4.30;;;;;;;19.64;25.61;99495.09;4999899;28;20324;-68
2021/03/30 11:05:49;;;;;;;6.03;4.47;;;;;;;19.70;25.96;99495.34;5000928;28;20236;-69
2021/03/30 11:08:16;;;;;;;4.27;3.87;;;;;;;19.90;26.91;99493.81;5000619;28;20206;-67
2021/03/30 11:10:43;;;;;;;4.87;4.27;;;;;;;19.69;26.10;99489.13;4999982;28;20197;-70
2021/03/30 11:13:10;;;;;;;3.87;3.47;;;;;;;19.80;25.34;99483.28;5000239;28;20240;-69
2021/03/30 11:15:40;;;;;;;4.40;4.00;;;;;;;20.04;25.38;99470.56;4998395;28;20209;-68
2021/03/30 11:18:09;;;;;;;3.83;3.47;;;;;;;20.47;24.42;99467.06;5001306;28;20217;-70
2021/03/30 11:20:38;;;;;;;6.13;3.67;;;;;;;20.64;23.56;99472.19;5000562;28;20461;-68
2021/03/30 11:23:06;;;;;;;7.20;4.13;;;;;;;20.57;23.64;99465.91;5001216;28;20741;-70
2021/03/30 11:25:33;;;;;;;4.13;3.70;;;;;;;20.22;24.72;99462.06;4996533;28;20217;-66
2021/03/30 11:28:03;;;;;;;4.40;4.00;;;;;;;19.97;23.70;99466.13;4997114;28;20209;-70
2021/03/30 11:30:36;;;;;;;4.13;3.77;;;;;;;19.81;24.99;99457.22;4999392;28;20220;-70
2021/03/30 11:33:07;;;;;;;6.00;3.77;;;;;;;20.03;24.83;99460.00;5000020;28;20241;-68
2021/03/30 11:35:36;;;;;;;4.60;3.70;;;;;;;20.11;24.49;99446.41;4995871;28;20316;-69
2021/03/30 11:38:09;;;;;;;3.77;3.50;;;;;;;20.14;25.37;99445.22;5000721;28;20215;-71
2021/03/30 11:40:37;;;;;;;5.10;3.43;;;;;;;20.23;25.46;99439.50;4996861;28;20209;-69
2021/03/30 11:43:04;;;;;;;4.17;3.50;;;;;;;20.06;25.07;99440.78;4999132;28;20264;-69
2021/03/30 11:45:31;;;;;;;4.23;3.43;;;;;;;20.68;25.36;99435.78;4999283;28;20225;-69
2021/03/30 11:48:00;;;;;;;3.47;3.17;;;;;;;20.94;25.61;99431.63;4998007;28;20745;-69
2021/03/30 11:50:27;;;;;;;6.07;3.50;;;;;;;21.11;24.21;99426.78;4997110;28;20212;-67
2021/03/30 11:52:54;;;;;;;3.47;3.17;;;;;;;21.32;23.10;99425.84;5003286;28;20227;-67